Time;durP1;ratioP1;P1;durP2;ratioP2;P2;SDS_P1;SDS_P2;PMS_P1;PMS_P2;Temp;Humidity;BMP_temperature;BMP_pressure;BME280_temperature;BME280_humidity;BME280_pressure;Samples;Min_cycle;Max_cycle;Signal;HPM_P1;HPM_P2
2021/05/26 00:00:04;;;;;;;0.70;0.43;;;;;;;;;;5052542;28;20482;-72
2021/05/26 00:02:30;;;;;;;0.90;0.70;;;;;;;;;;5052317;28;20493;-73
2021/05/26 00:04:56;;;;;;;0.80;0.60;;;;;;;;;;5052238;28;20459;-74
2021/05/26 00:07:22;;;;;;;1.30;0.70;;;;;;;;;;5052802;28;20912;-73
2021/05/26 00:09:48;;;;;;;1.00;0.60;;;;;;;;;;5051922;28;20399;-75
2021/05/26 00:12:14;;;;;;;0.80;0.80;;;;;;;;;;5052329;28;20423;-74
2021/05/26 00:14:40;;;;;;;1.07;0.80;;;;;;;;;;5052021;28;20410;-72
2021/05/26 00:17:06;;;;;;;0.77;0.53;;;;;;;;;;5052289;28;20538;-75
2021/05/26 00:19:33;;;;;;;0.90;0.70;;;;;;;;;;5051787;28;20419;-75
2021/05/26 00:21:59;;;;;;;0.83;0.77;;;;;;;;;;5052076;28;20415;-73
2021/05/26 00:24:24;;;;;;;0.80;0.60;;;;;;;;;;5046262;28;20501;-74
2021/05/26 00:26:51;;;;;;;2.60;0.97;;;;;;;;;;5041585;28;20463;-74
2021/05/26 00:29:17;;;;;;;1.30;1.00;;;;;;;;;;5040173;28;20402;-76
2021/05/26 00:31:42;;;;;;;1.00;0.90;;;;;;;;;;5034108;28;20419;-75
2021/05/26 00:34:08;;;;;;;0.70;0.47;;;;;;;;;;5052306;28;20413;-75
2021/05/26 00:36:34;;;;;;;0.93;0.83;;;;;;;;;;5052462;28;20373;-74
2021/05/26 00:39:00;;;;;;;1.37;0.80;;;;;;;;;;5051530;28;20402;-73
2021/05/26 00:41:32;;;;;;;2.60;0.83;;;;;;;;;;5051268;28;20480;-72
2021/05/26 00:43:58;;;;;;;1.73;0.90;;;;;;;;;;5051780;28;20440;-73
2021/05/26 00:46:25;;;;;;;0.90;0.50;;;;;;;;;;5051989;28;20549;-72
2021/05/26 00:48:51;;;;;;;0.70;0.40;;;;;;;;;;5051398;28;20415;-74
2021/05/26 00:51:17;;;;;;;1.10;0.80;;;;;;;;;;5051135;28;20934;-75
2021/05/26 00:53:43;;;;;;;1.10;0.90;;;;;;;;;;5051914;28;20492;-72
2021/05/26 00:56:09;;;;;;;1.47;0.60;;;;;;;;;;5050990;28;20418;-73
2021/05/26 00:58:35;;;;;;;0.80;0.80;;;;;;;;;;5033930;28;20794;-72
2021/05/26 01:01:01;;;;;;;0.80;0.50;;;;;;;;;;5050735;28;20875;-74
2021/05/26 01:03:28;;;;;;;2.20;1.87;;;;;;;;;;5051344;28;20438;-75
2021/05/26 01:05:54;;;;;;;0.80;0.60;;;;;;;;;;5051066;28;20425;-74
2021/05/26 01:08:20;;;;;;;1.00;0.83;;;;;;;;;;5051449;28;20418;-74
2021/05/26 01:10:46;;;;;;;1.00;0.70;;;;;;;;;;5032603;28;20983;-74
2021/05/26 01:13:13;;;;;;;1.17;1.07;;;;;;;;;;5051212;28;20965;-74
2021/05/26 01:15:40;;;;;;;2.83;2.60;;;;;;;;;;5051302;28;20414;-74
2021/05/26 01:18:22;;;;;;;2.17;0.60;;;;;;;;;;5050825;28;20412;-75
2021/05/26 01:20:49;;;;;;;1.70;0.90;;;;;;;;;;5050266;28;20464;-74
2021/05/26 01:23:17;;;;;;;1.00;0.87;;;;;;;;;;5051123;28;20407;-75
2021/05/26 01:25:44;;;;;;;1.43;0.87;;;;;;;;;;5033448;28;20974;-75
2021/05/26 01:28:11;;;;;;;1.30;0.80;;;;;;;;;;5050086;28;20407;-76
2021/05/26 01:30:36;;;;;;;0.87;0.70;;;;;;;;;;5050380;28;20437;-74
2021/05/26 01:33:02;;;;;;;1.37;1.13;;;;;;;;;;5051039;28;20794;-74
2021/05/26 01:35:28;;;;;;;0.70;0.50;;;;;;;;;;5051125;28;20403;-75
2021/05/26 01:37:54;;;;;;;0.90;0.80;;;;;;;;;;5051090;28;20406;-74
2021/05/26 01:40:20;;;;;;;0.73;0.60;;;;;;;;;;5050057;28;20975;-75
2021/05/26 01:42:46;;;;;;;0.70;0.50;;;;;;;;;;5050726;28;20418;-75
2021/05/26 01:45:13;;;;;;;1.20;0.77;;;;;;;;;;5051110;28;20584;-75
2021/05/26 01:47:39;;;;;;;1.37;0.80;;;;;;;;;;5050741;28;20494;-73
2021/05/26 01:50:19;;;;;;;0.90;0.80;;;;;;;;;;5051167;28;20886;-75
2021/05/26 01:52:46;;;;;;;3.53;2.00;;;;;;;;;;5050302;28;20886;-72
2021/05/26 01:55:12;;;;;;;1.23;0.70;;;;;;;;;;5050587;28;20415;-71
2021/05/26 01:57:40;;;;;;;1.90;0.93;;;;;;;;;;5049392;28;20552;-72
2021/05/26 02:00:06;;;;;;;2.40;1.00;;;;;;;;;;5050081;28;20411;-73
2021/05/26 02:02:32;;;;;;;1.17;1.07;;;;;;;;;;5049207;28;20456;-73
2021/05/26 02:04:58;;;;;;;1.77;1.07;;;;;;;;;;5050516;28;20458;-72
2021/05/26 02:07:24;;;;;;;0.87;0.57;;;;;;;;;;5032982;28;21001;-72
2021/05/26 02:09:50;;;;;;;1.50;1.40;;;;;;;;;;5050024;28;20809;-74
2021/05/26 02:12:23;;;;;;;3.30;1.00;;;;;;;;;;5050267;28;20449;-73
2021/05/26 02:14:50;;;;;;;2.47;1.23;;;;;;;;;;5050652;28;20905;-73
2021/05/26 02:17:16;;;;;;;2.20;1.70;;;;;;;;;;5050542;28;20489;-74
2021/05/26 02:19:42;;;;;;;2.23;1.50;;;;;;;;;;5050083;28;21045;-74
2021/05/26 02:22:08;;;;;;;1.03;0.60;;;;;;;;;;5050232;28;20421;-73
2021/05/26 02:24:33;;;;;;;1.37;0.93;;;;;;;;;;5050769;28;20887;-75
2021/05/26 02:26:59;;;;;;;1.57;1.23;;;;;;;;;;5049955;28;20776;-75
2021/05/26 02:29:25;;;;;;;4.00;1.27;;;;;;;;;;5048828;28;20431;-75
2021/05/26 02:31:51;;;;;;;1.10;0.70;;;;;;;;;;5050546;28;20491;-72
2021/05/26 02:34:17;;;;;;;1.80;1.70;;;;;;;;;;5050979;28;20381;-71
2021/05/26 02:36:43;;;;;;;1.43;1.10;;;;;;;;;;5050802;28;20398;-73
2021/05/26 02:39:10;;;;;;;3.00;1.37;;;;;;;;;;5050003;28;20402;-73
2021/05/26 02:41:36;;;;;;;0.90;0.50;;;;;;;;;;5050563;28;20611;-75
2021/05/26 02:44:02;;;;;;;1.00;0.80;;;;;;;;;;5050627;28;20376;-77
2021/05/26 02:46:28;;;;;;;1.53;1.40;;;;;;;;;;5050533;28;20988;-73
2021/05/26 02:48:54;;;;;;;1.43;0.60;;;;;;;;;;5050353;28;20399;-74
2021/05/26 02:51:21;;;;;;;2.17;1.37;;;;;;;;;;5049687;28;20810;-72
2021/05/26 02:53:47;;;;;;;2.30;1.23;;;;;;;;;;5050531;28;20950;-71
2021/05/26 02:56:13;;;;;;;1.20;1.07;;;;;;;;;;5031759;28;20453;-72
2021/05/26 02:58:39;;;;;;;0.90;0.80;;;;;;;;;;5049404;28;20931;-72
2021/05/26 03:03:42;;;;;;;0.80;0.70;;;;;;;;;;5066432;28;20798;-71
2021/05/26 03:06:08;;;;;;;2.50;0.83;;;;;;;;;;5063858;28;20902;-71
2021/05/26 03:08:33;;;;;;;0.90;0.70;;;;;;;;;;5057051;28;20438;-71
2021/05/26 03:11:00;;;;;;;1.63;0.70;;;;;;;;;;5072626;28;20414;-71
2021/05/26 03:13:26;;;;;;;0.90;0.50;;;;;;;;;;5056277;28;20450;-72
2021/05/26 03:15:53;;;;;;;0.90;0.77;;;;;;;;;;5043257;28;20443;-72
2021/05/26 03:18:22;;;;;;;0.90;0.50;;;;;;;;;;5034879;28;20400;-71
2021/05/26 03:20:49;;;;;;;1.67;1.57;;;;;;;;;;5052714;28;20402;-71
2021/05/26 03:23:15;;;;;;;1.00;0.80;;;;;;;;;;5059165;28;20599;-71
2021/05/26 03:25:41;;;;;;;2.73;0.87;;;;;;;;;;5038737;28;20568;-72
2021/05/26 03:28:07;;;;;;;1.70;1.30;;;;;;;;;;5043731;28;20506;-71
2021/05/26 03:30:33;;;;;;;5.27;1.83;;;;;;;;;;5052457;28;20479;-70
2021/05/26 03:33:00;;;;;;;0.80;0.60;;;;;;;;;;5053270;28;20427;-71
2021/05/26 03:35:26;;;;;;;1.10;0.77;;;;;;;;;;5052570;28;20423;-71
2021/05/26 03:37:53;;;;;;;0.90;0.60;;;;;;;;;;5053259;28;20402;-71
2021/05/26 03:40:22;;;;;;;1.20;0.60;;;;;;;;;;5044929;28;20497;-73
2021/05/26 03:42:47;;;;;;;0.90;0.70;;;;;;;;;;5027167;28;20443;-72
2021/05/26 03:45:14;;;;;;;1.10;0.90;;;;;;;;;;5033075;28;20842;-72
2021/05/26 03:47:40;;;;;;;2.00;1.57;;;;;;;;;;5032868;28;20431;-72
2021/05/26 03:50:07;;;;;;;1.20;0.97;;;;;;;;;;5032205;28;20470;-71
2021/05/26 03:52:33;;;;;;;1.60;1.40;;;;;;;;;;5033264;28;20419;-75
2021/05/26 03:55:02;;;;;;;1.53;1.37;;;;;;;;;;5032941;28;20377;-72
2021/05/26 03:57:28;;;;;;;2.80;0.90;;;;;;;;;;5049527;28;20987;-72
2021/05/26 03:59:54;;;;;;;3.70;1.63;;;;;;;;;;5050704;28;20422;-72
2021/05/26 04:02:20;;;;;;;1.63;0.73;;;;;;;;;;5064847;28;20537;-73
2021/05/26 04:04:46;;;;;;;0.97;0.87;;;;;;;;;;5072516;28;20537;-73
2021/05/26 04:07:12;;;;;;;0.70;0.47;;;;;;;;;;5072635;28;20395;-71
2021/05/26 04:09:40;;;;;;;0.80;0.60;;;;;;;;;;5051422;28;20410;-73
2021/05/26 04:12:06;;;;;;;1.50;0.70;;;;;;;;;;5032620;28;20441;-72
2021/05/26 04:14:32;;;;;;;1.00;0.70;;;;;;;;;;5046430;28;20529;-73
2021/05/26 04:16:58;;;;;;;0.70;0.50;;;;;;;;;;5052308;28;20374;-70
2021/05/26 04:19:24;;;;;;;1.27;0.97;;;;;;;;;;5026098;28;20391;-70
2021/05/26 04:21:50;;;;;;;1.07;0.60;;;;;;;;;;5042613;28;20432;-70
2021/05/26 04:24:16;;;;;;;1.17;0.60;;;;;;;;;;5024109;28;20386;-70
2021/05/26 04:26:42;;;;;;;1.87;1.27;;;;;;;;;;5043693;28;20391;-70
2021/05/26 04:29:08;;;;;;;3.57;1.17;;;;;;;;;;5042883;28;20388;-70
2021/05/26 04:31:34;;;;;;;0.80;0.60;;;;;;;;;;5041610;28;20929;-70
2021/05/26 04:34:00;;;;;;;2.20;1.70;;;;;;;;;;5042442;28;20404;-70
2021/05/26 04:36:26;;;;;;;2.40;1.97;;;;;;;;;;5041231;28;20406;-71
2021/05/26 04:38:52;;;;;;;1.33;0.73;;;;;;;;;;5042331;28;20540;-70
2021/05/26 04:41:18;;;;;;;1.23;1.13;;;;;;;;;;5040226;28;20400;-70
2021/05/26 04:43:44;;;;;;;4.43;1.67;;;;;;;;;;5023063;28;20492;-71
2021/05/26 04:46:10;;;;;;;1.67;0.70;;;;;;;;;;5042265;28;20451;-70
2021/05/26 04:48:35;;;;;;;1.00;0.90;;;;;;;;;;5041057;28;20417;-70
2021/05/26 04:51:01;;;;;;;2.70;1.37;;;;;;;;;;5040626;28;20922;-70
2021/05/26 04:53:27;;;;;;;1.63;1.33;;;;;;;;;;5041975;28;20511;-70
2021/05/26 04:55:53;;;;;;;1.13;1.03;;;;;;;;;;5039867;28;20467;-70
2021/05/26 04:58:19;;;;;;;1.30;1.20;;;;;;;;;;5043024;28;20990;-70
2021/05/26 05:00:45;;;;;;;3.03;2.10;;;;;;;;;;5041349;28;20414;-70
2021/05/26 05:03:11;;;;;;;1.00;0.70;;;;;;;;;;5023274;28;20478;-70
2021/05/26 05:05:38;;;;;;;1.37;1.27;;;;;;;;;;5043453;28;20560;-70
2021/05/26 05:08:05;;;;;;;1.83;1.00;;;;;;;;;;5042131;28;20495;-70
2021/05/26 05:10:31;;;;;;;2.23;1.17;;;;;;;;;;5041247;28;20366;-70
2021/05/26 05:12:57;;;;;;;2.60;1.20;;;;;;;;;;5042090;28;20984;-70
2021/05/26 05:15:23;;;;;;;1.63;1.00;;;;;;;;;;5022297;28;20410;-70
2021/05/26 05:17:49;;;;;;;3.00;1.40;;;;;;;;;;5040412;28;20422;-70
2021/05/26 05:20:17;;;;;;;2.90;1.93;;;;;;;;;;5041004;28;20413;-70
2021/05/26 05:22:43;;;;;;;0.87;0.77;;;;;;;;;;5023866;28;20960;-70
2021/05/26 05:25:10;;;;;;;0.90;0.77;;;;;;;;;;5040036;28;20529;-70
2021/05/26 05:27:36;;;;;;;2.13;1.60;;;;;;;;;;5040281;28;20400;-70
2021/05/26 05:30:03;;;;;;;1.20;1.00;;;;;;;;;;5034584;28;21025;-70
2021/05/26 05:32:29;;;;;;;1.27;0.70;;;;;;;;;;5045038;28;20468;-70
2021/05/26 05:34:55;;;;;;;1.67;0.80;;;;;;;;;;5037449;28;20463;-70
2021/05/26 05:37:21;;;;;;;2.77;0.90;;;;;;;;;;5040547;28;20418;-71
2021/05/26 05:39:47;;;;;;;1.10;0.90;;;;;;;;;;5020039;28;20427;-70
2021/05/26 05:42:13;;;;;;;1.40;1.00;;;;;;;;;;5044933;28;20427;-70
2021/05/26 05:44:39;;;;;;;1.43;1.03;;;;;;;;;;5041374;28;20933;-71
2021/05/26 05:47:06;;;;;;;1.37;1.23;;;;;;;;;;5038034;28;20435;-71
2021/05/26 05:49:31;;;;;;;4.13;1.50;;;;;;;;;;5017311;28;20407;-70
2021/05/26 05:51:57;;;;;;;1.60;1.43;;;;;;;;;;5054345;28;20940;-70
2021/05/26 05:54:23;;;;;;;1.67;1.30;;;;;;;;;;5030369;28;20403;-70
2021/05/26 05:56:49;;;;;;;0.97;0.70;;;;;;;;;;5012673;28;20748;-70
2021/05/26 05:59:15;;;;;;;4.23;1.10;;;;;;;;;;5029629;28;20923;-72
2021/05/26 06:01:41;;;;;;;3.27;0.70;;;;;;;;;;5042524;28;20432;-71
2021/05/26 06:04:07;;;;;;;2.33;2.13;;;;;;;;;;5042524;28;20406;-71
2021/05/26 06:06:33;;;;;;;0.80;0.60;;;;;;;;;;5040673;28;20464;-70
2021/05/26 06:08:59;;;;;;;1.90;1.03;;;;;;;;;;5045437;28;20432;-70
2021/05/26 06:11:25;;;;;;;0.93;0.83;;;;;;;;;;5046635;28;20421;-71
2021/05/26 06:13:51;;;;;;;1.00;0.87;;;;;;;;;;5058333;28;20425;-71
2021/05/26 06:16:17;;;;;;;2.80;1.30;;;;;;;;;;5050645;28;20421;-71
2021/05/26 06:18:43;;;;;;;1.80;1.47;;;;;;;;;;5029106;28;20930;-70
2021/05/26 06:21:09;;;;;;;2.20;1.43;;;;;;;;;;5027398;28;20382;-71
2021/05/26 06:23:35;;;;;;;2.80;1.13;;;;;;;;;;5036656;28;20506;-71
2021/05/26 06:26:02;;;;;;;2.30;1.33;;;;;;;;;;5047231;28;20458;-71
2021/05/26 06:28:28;;;;;;;1.97;1.13;;;;;;;;;;5032522;28;20419;-73
2021/05/26 06:30:56;;;;;;;1.50;1.40;;;;;;;;;;5046834;28;20830;-71
2021/05/26 06:33:22;;;;;;;0.90;0.80;;;;;;;;;;5046960;28;20445;-72
2021/05/26 06:35:48;;;;;;;2.13;1.33;;;;;;;;;;5028704;28;20428;-72
2021/05/26 06:38:14;;;;;;;1.30;1.20;;;;;;;;;;5031815;28;20893;-71
2021/05/26 06:40:40;;;;;;;1.67;0.80;;;;;;;;;;5027365;28;20440;-72
2021/05/26 06:43:06;;;;;;;0.90;0.60;;;;;;;;;;5039652;28;21041;-72
2021/05/26 06:45:32;;;;;;;2.60;1.30;;;;;;;;;;5043748;28;20426;-70
2021/05/26 06:47:58;;;;;;;3.53;1.40;;;;;;;;;;5033560;28;20886;-71
2021/05/26 06:50:24;;;;;;;2.13;0.90;;;;;;;;;;5045272;28;20419;-72
2021/05/26 06:52:50;;;;;;;1.37;0.80;;;;;;;;;;5044747;28;20778;-71
2021/05/26 06:55:16;;;;;;;1.90;1.63;;;;;;;;;;5039998;28;20821;-71
2021/05/26 06:57:43;;;;;;;2.80;2.60;;;;;;;;;;5037295;28;20420;-69
2021/05/26 07:00:09;;;;;;;1.20;1.10;;;;;;;;;;5038551;28;20439;-71
2021/05/26 07:02:35;;;;;;;1.30;0.90;;;;;;;;;;5038208;28;20458;-70
2021/05/26 07:05:02;;;;;;;1.27;0.90;;;;;;;;;;5041042;28;20445;-70
2021/05/26 07:07:28;;;;;;;0.90;0.60;;;;;;;;;;5042373;28;20418;-70
2021/05/26 07:09:54;;;;;;;1.33;0.83;;;;;;;;;;5041184;28;20399;-70
2021/05/26 07:12:20;;;;;;;1.87;0.83;;;;;;;;;;5040570;28;20424;-70
2021/05/26 07:14:46;;;;;;;1.20;0.70;;;;;;;;;;5039136;28;20398;-70
2021/05/26 07:17:12;;;;;;;1.47;0.80;;;;;;;;;;5025406;28;20513;-71
2021/05/26 07:19:38;;;;;;;0.80;0.73;;;;;;;;;;5026685;28;20421;-70
2021/05/26 07:22:04;;;;;;;1.00;0.70;;;;;;;;;;5037393;28;20490;-70
2021/05/26 07:24:30;;;;;;;1.20;1.10;;;;;;;;;;5021235;28;20428;-70
2021/05/26 07:26:56;;;;;;;1.47;0.97;;;;;;;;;;5038795;28;20805;-70
2021/05/26 07:29:22;;;;;;;0.90;0.77;;;;;;;;;;5039427;28;20439;-70
2021/05/26 07:31:48;;;;;;;2.13;2.03;;;;;;;;;;5039676;28;20885;-71
2021/05/26 07:34:14;;;;;;;1.40;1.00;;;;;;;;;;5042157;28;20408;-71
2021/05/26 07:36:40;;;;;;;1.47;0.70;;;;;;;;;;5037609;28;20419;-72
2021/05/26 07:39:06;;;;;;;2.40;0.97;;;;;;;;;;5038877;28;20393;-73
2021/05/26 07:41:32;;;;;;;2.10;1.23;;;;;;;;;;5037496;28;20453;-71
2021/05/26 07:43:58;;;;;;;0.80;0.60;;;;;;;;;;5031603;28;20444;-72
2021/05/26 07:46:24;;;;;;;0.90;0.70;;;;;;;;;;5015437;28;20435;-70
2021/05/26 07:48:52;;;;;;;1.47;0.97;;;;;;;;;;5038312;28;20407;-71
2021/05/26 07:51:26;;;;;;;1.03;0.87;;;;;;;;;;5035696;28;21035;-70
2021/05/26 07:53:52;;;;;;;0.80;0.73;;;;;;;;;;5038794;28;20886;-73
2021/05/26 07:56:18;;;;;;;0.83;0.50;;;;;;;;;;5036807;28;20420;-71
2021/05/26 07:58:44;;;;;;;1.33;1.00;;;;;;;;;;5036792;28;20963;-72
2021/05/26 08:01:10;;;;;;;2.10;1.70;;;;;;;;;;5035892;28;20433;-73
2021/05/26 08:03:36;;;;;;;0.90;0.70;;;;;;;;;;5039967;28;20463;-70
2021/05/26 08:06:02;;;;;;;1.13;0.93;;;;;;;;;;5039936;28;20518;-70
2021/05/26 08:08:30;;;;;;;2.27;1.13;;;;;;;;;;5039070;28;20415;-70
2021/05/26 08:10:56;;;;;;;0.90;0.80;;;;;;;;;;5037919;28;20415;-70
2021/05/26 08:13:22;;;;;;;1.97;1.17;;;;;;;;;;5041575;28;20430;-70
2021/05/26 08:15:48;;;;;;;4.87;1.07;;;;;;;;;;5040331;28;20408;-71
2021/05/26 08:18:14;;;;;;;1.60;1.33;;;;;;;;;;5039243;28;20739;-70
2021/05/26 08:20:40;;;;;;;2.07;1.90;;;;;;;;;;5039725;28;20394;-70
2021/05/26 08:23:08;;;;;;;4.30;1.53;;;;;;;;;;5040186;28;20451;-71
2021/05/26 08:25:34;;;;;;;1.87;1.67;;;;;;;;;;5038480;28;20465;-72
2021/05/26 08:28:00;;;;;;;1.00;0.80;;;;;;;;;;5039606;28;20473;-72
2021/05/26 08:30:26;;;;;;;2.40;1.23;;;;;;;;;;5040427;28;20408;-70
2021/05/26 08:32:52;;;;;;;2.50;1.40;;;;;;;;;;5040211;28;21185;-71
2021/05/26 08:35:18;;;;;;;3.23;2.07;;;;;;;;;;5040772;28;20840;-70
2021/05/26 08:37:44;;;;;;;2.30;0.90;;;;;;;;;;5042582;28;20404;-72
2021/05/26 08:40:10;;;;;;;2.00;1.80;;;;;;;;;;5036379;28;20407;-72
2021/05/26 08:42:36;;;;;;;2.70;1.20;;;;;;;;;;5038326;28;20403;-72
2021/05/26 08:45:04;;;;;;;5.23;1.80;;;;;;;;;;5039665;28;20460;-71
2021/05/26 08:47:37;;;;;;;2.67;1.93;;;;;;;;;;5040065;28;20927;-70
2021/05/26 08:50:04;;;;;;;1.30;1.20;;;;;;;;;;5038156;28;20770;-71
2021/05/26 08:52:30;;;;;;;1.90;1.70;;;;;;;;;;5038060;28;20432;-71
2021/05/26 08:54:56;;;;;;;2.30;1.47;;;;;;;;;;5038121;28;20395;-71
2021/05/26 08:57:22;;;;;;;1.47;0.90;;;;;;;;;;5038696;28;20417;-70
2021/05/26 08:59:48;;;;;;;3.33;3.03;;;;;;;;;;5037494;28;20838;-72
2021/05/26 09:02:14;;;;;;;1.53;1.43;;;;;;;;;;5061839;22;20983;31
2021/05/26 09:04:40;;;;;;;1.20;0.90;;;;;;;;;;5022658;28;20489;-75
2021/05/26 09:07:07;;;;;;;1.20;1.10;;;;;;;;;;5029280;28;20412;-75
2021/05/26 09:09:34;;;;;;;1.17;1.07;;;;;;;;;;5027294;28;20471;-73
2021/05/26 09:12:00;;;;;;;1.67;1.10;;;;;;;;;;5011317;28;20443;-75
2021/05/26 09:14:39;;;;;;;6.47;2.03;;;;;;;;;;5029485;28;20830;-73
2021/05/26 09:17:11;;;;;;;1.70;1.60;;;;;;;;;;5029140;28;20502;-73
2021/05/26 09:19:40;;;;;;;1.83;1.73;;;;;;;;;;5028953;28;20975;-72
2021/05/26 09:22:13;;;;;;;1.10;1.00;;;;;;;;;;5026390;28;20419;-73
2021/05/26 09:24:39;;;;;;;0.90;0.80;;;;;;;;;;5026501;28;20437;-73
2021/05/26 09:27:09;;;;;;;2.60;2.40;;;;;;;;;;5026629;28;20398;-72
2021/05/26 09:29:37;;;;;;;1.07;0.90;;;;;;;;;;5010203;28;20419;-72
2021/05/26 09:32:20;;;;;;;1.97;1.13;;;;;;;;;;5028536;28;20442;-72
2021/05/26 09:34:50;;;;;;;0.97;0.83;;;;;;;;;;5028745;28;20413;-72
2021/05/26 09:37:23;;;;;;;2.17;0.83;;;;;;;;;;5028306;28;20428;-72
2021/05/26 09:39:51;;;;;;;3.20;1.10;;;;;;;;;;5028094;28;20427;-72
2021/05/26 09:42:24;;;;;;;1.53;0.87;;;;;;;;;;5028618;28;20909;-72
2021/05/26 09:45:12;;;;;;;1.30;0.90;;;;;;;;;;5028598;28;20495;-72
2021/05/26 09:47:41;;;;;;;1.30;1.07;;;;;;;;;;5011178;28;20412;-73
2021/05/26 09:50:34;;;;;;;14.63;1.67;;;;;;;;;;5027519;28;20500;-72
2021/05/26 09:53:03;;;;;;;0.90;0.83;;;;;;;;;;5024837;28;20487;-72
2021/05/26 09:55:33;;;;;;;1.43;0.77;;;;;;;;;;5028498;28;20404;-72
2021/05/26 09:58:00;;;;;;;1.30;1.17;;;;;;;;;;5021491;28;20412;-72
2021/05/26 10:00:29;;;;;;;1.57;1.07;;;;;;;;;;5023052;28;20471;-73
2021/05/26 10:02:56;;;;;;;1.10;0.73;;;;;;;;;;5027841;28;20414;-74
2021/05/26 10:05:22;;;;;;;1.17;1.07;;;;;;;;;;5028544;28;20460;-74
2021/05/26 10:07:51;;;;;;;1.50;0.50;;;;;;;;;;5024433;28;20417;-73
2021/05/26 10:10:18;;;;;;;1.90;1.40;;;;;;;;;;5016777;28;20467;-74
2021/05/26 10:12:44;;;;;;;1.30;1.20;;;;;;;;;;5029008;28;20905;-74
2021/05/26 10:15:12;;;;;;;2.13;1.40;;;;;;;;;;5030477;28;20416;-75
2021/05/26 10:17:41;;;;;;;1.00;0.80;;;;;;;;;;5032807;28;21153;-75
2021/05/26 10:20:09;;;;;;;1.30;1.20;;;;;;;;;;5013991;28;20446;-75
2021/05/26 10:22:38;;;;;;;0.83;0.80;;;;;;;;;;5014445;28;20423;-74
2021/05/26 10:25:07;;;;;;;1.43;0.70;;;;;;;;;;5018744;28;21141;-73
2021/05/26 10:28:11;;;;;;;0.80;0.63;;;;;;;;;;5029761;28;20414;-75
2021/05/26 10:30:47;;;;;;;2.70;1.00;;;;;;;;;;4904592;29;20450;-74
2021/05/26 10:33:15;;;;;;;1.20;0.80;;;;;;;;;;4921572;29;20448;-74
2021/05/26 10:35:55;;;;;;;1.90;1.27;;;;;;;;;;4980788;28;20899;-74
2021/05/26 10:38:21;;;;;;;2.43;1.30;;;;;;;;;;5013744;28;21005;-74
2021/05/26 10:40:51;;;;;;;1.10;0.90;;;;;;;;;;5031201;28;20405;-73
2021/05/26 10:43:18;;;;;;;0.80;0.60;;;;;;;;;;5032095;28;20412;-73
2021/05/26 10:45:47;;;;;;;1.17;0.97;;;;;;;;;;5031633;28;20432;-74
2021/05/26 10:48:16;;;;;;;2.10;1.03;;;;;;;;;;5016341;28;20387;-75
2021/05/26 10:50:47;;;;;;;0.83;0.63;;;;;;;;;;5012696;28;20413;-74
2021/05/26 10:53:15;;;;;;;0.93;0.77;;;;;;;;;;5000504;28;20394;-74
2021/05/26 10:55:46;;;;;;;0.80;0.63;;;;;;;;;;5033030;28;20428;-73
2021/05/26 10:58:18;;;;;;;1.07;0.80;;;;;;;;;;5029040;28;20397;-73
2021/05/26 11:00:49;;;;;;;1.73;1.50;;;;;;;;;;5030668;28;20435;-72
2021/05/26 11:03:24;;;;;;;1.10;0.70;;;;;;;;;;5029658;28;20863;-72
2021/05/26 11:05:54;;;;;;;0.80;0.60;;;;;;;;;;5031458;28;20821;-73
2021/05/26 11:08:27;;;;;;;1.37;1.10;;;;;;;;;;5027449;28;20591;-72
2021/05/26 11:10:53;;;;;;;0.80;0.70;;;;;;;;;;5013412;28;20903;-72
2021/05/26 11:13:21;;;;;;;0.80;0.70;;;;;;;;;;5026230;28;20407;-73
2021/05/26 11:15:48;;;;;;;1.27;0.90;;;;;;;;;;5017709;28;20397;-72
2021/05/26 11:18:29;;;;;;;1.10;1.00;;;;;;;;;;5028373;28;20410;-73
2021/05/26 11:20:55;;;;;;;0.90;0.73;;;;;;;;;;5030349;28;20443;-72
2021/05/26 11:23:21;;;;;;;1.10;0.93;;;;;;;;;;5030974;28;20439;-74
2021/05/26 11:25:56;;;;;;;0.83;0.80;;;;;;;;;;5029541;28;20455;-76
2021/05/26 11:28:32;;;;;;;1.43;1.10;;;;;;;;;;5030717;28;20378;-73
2021/05/26 11:31:05;;;;;;;0.77;0.50;;;;;;;;;;5011315;28;20486;-73
2021/05/26 11:33:31;;;;;;;0.97;0.87;;;;;;;;;;5030030;28;20411;-74
2021/05/26 11:36:04;;;;;;;1.83;1.20;;;;;;;;;;5030521;28;20415;-72
2021/05/26 11:38:31;;;;;;;0.80;0.70;;;;;;;;;;5027152;28;20401;-73
2021/05/26 11:40:57;;;;;;;2.00;1.40;;;;;;;;;;5028639;28;20466;-73
2021/05/26 11:43:23;;;;;;;3.27;1.70;;;;;;;;;;5012612;28;20385;-73
2021/05/26 11:46:05;;;;;;;1.67;0.97;;;;;;;;;;5028886;28;20669;-73
2021/05/26 11:48:31;;;;;;;0.80;0.80;;;;;;;;;;5027659;28;20378;-73
2021/05/26 11:50:57;;;;;;;1.00;0.90;;;;;;;;;;5028019;28;20476;-73
2021/05/26 11:53:23;;;;;;;1.10;0.70;;;;;;;;;;5030177;28;20488;-73
2021/05/26 11:55:50;;;;;;;0.80;0.60;;;;;;;;;;5029888;28;20884;-74
2021/05/26 11:58:30;;;;;;;0.83;0.83;;;;;;;;;;5030436;28;20388;-75
2021/05/26 12:01:00;;;;;;;1.73;0.97;;;;;;;;;;5029137;28;20466;-74
2021/05/26 12:03:29;;;;;;;1.00;0.83;;;;;;;;;;5030288;28;20410;-74
2021/05/26 12:05:56;;;;;;;1.17;0.80;;;;;;;;;;5028849;28;20472;-74
2021/05/26 12:08:23;;;;;;;1.17;0.80;;;;;;;;;;5030291;28;20966;-74
2021/05/26 12:10:53;;;;;;;1.37;1.00;;;;;;;;;;5029655;28;20417;-74
2021/05/26 12:13:20;;;;;;;1.10;0.83;;;;;;;;;;5030247;28;20494;-76
2021/05/26 12:15:46;;;;;;;1.57;0.97;;;;;;;;;;5030948;28;20797;-75
2021/05/26 12:18:13;;;;;;;1.20;1.10;;;;;;;;;;5030128;28;20561;-75
2021/05/26 12:20:42;;;;;;;0.90;0.63;;;;;;;;;;5029109;28;20443;-75
2021/05/26 12:23:08;;;;;;;1.53;1.00;;;;;;;;;;5012092;28;20404;-74
2021/05/26 12:25:35;;;;;;;1.30;1.20;;;;;;;;;;5029250;28;20463;-75
2021/05/26 12:28:01;;;;;;;1.33;0.80;;;;;;;;;;5029342;28;20390;-74
2021/05/26 12:30:27;;;;;;;0.90;0.63;;;;;;;;;;5026736;28;20395;-76
2021/05/26 12:33:11;;;;;;;1.20;1.10;;;;;;;;;;5024878;28;20625;-74
2021/05/26 12:35:38;;;;;;;0.90;0.77;;;;;;;;;;5019993;28;20407;-75
2021/05/26 12:38:14;;;;;;;2.33;1.00;;;;;;;;;;5023333;28;20487;-76
2021/05/26 12:40:41;;;;;;;1.63;1.27;;;;;;;;;;5041090;28;20952;-75
2021/05/26 12:43:21;;;;;;;0.70;0.60;;;;;;;;;;5038202;28;20427;-75
2021/05/26 12:45:47;;;;;;;1.57;0.90;;;;;;;;;;5037435;28;20462;-76
2021/05/26 12:48:14;;;;;;;2.73;1.73;;;;;;;;;;5037562;28;20983;-75
2021/05/26 12:50:41;;;;;;;1.73;0.90;;;;;;;;;;5037219;28;20406;-75
2021/05/26 12:53:13;;;;;;;2.60;0.90;;;;;;;;;;5019739;28;20773;-75
2021/05/26 12:55:39;;;;;;;2.90;1.90;;;;;;;;;;5034202;28;20423;-74
2021/05/26 12:58:10;;;;;;;1.30;1.17;;;;;;;;;;5035334;28;20408;-75
2021/05/26 13:00:39;;;;;;;7.20;1.03;;;;;;;;;;5027826;28;20541;-73
2021/05/26 13:03:06;;;;;;;2.70;1.27;;;;;;;;;;5036201;28;20428;-75
2021/05/26 13:05:32;;;;;;;1.73;1.63;;;;;;;;;;5037970;28;20470;-73
2021/05/26 13:08:17;;;;;;;1.37;1.00;;;;;;;;;;5036674;28;20473;-74
2021/05/26 13:10:46;;;;;;;0.97;0.90;;;;;;;;;;5035791;28;20770;-70
2021/05/26 13:13:28;;;;;;;1.13;1.03;;;;;;;;;;5036387;28;20381;-73
2021/05/26 13:15:55;;;;;;;1.07;0.97;;;;;;;;;;5019196;28;20398;-73
2021/05/26 13:18:22;;;;;;;2.00;1.37;;;;;;;;;;5037443;28;20374;-74
2021/05/26 13:20:48;;;;;;;1.23;0.80;;;;;;;;;;5037313;28;20561;-77
2021/05/26 13:23:15;;;;;;;1.00;0.73;;;;;;;;;;5037796;28;20377;-76
2021/05/26 13:25:42;;;;;;;0.90;0.60;;;;;;;;;;5037323;28;20544;-74
2021/05/26 13:28:11;;;;;;;0.70;0.60;;;;;;;;;;5035772;28;20419;-73
2021/05/26 13:30:38;;;;;;;0.80;0.50;;;;;;;;;;5036940;28;20424;-74
2021/05/26 13:33:06;;;;;;;3.53;0.90;;;;;;;;;;5037123;28;20499;-75
2021/05/26 13:35:37;;;;;;;1.43;0.90;;;;;;;;;;5019045;28;20466;-74
2021/05/26 13:38:04;;;;;;;0.70;0.50;;;;;;;;;;5037860;28;20471;-75
2021/05/26 13:40:31;;;;;;;0.90;0.50;;;;;;;;;;5035411;28;20491;-75
2021/05/26 13:42:57;;;;;;;0.70;0.50;;;;;;;;;;5035817;28;20378;-75
2021/05/26 13:45:24;;;;;;;1.00;0.90;;;;;;;;;;5036657;28;20469;-75
2021/05/26 13:47:50;;;;;;;1.20;0.93;;;;;;;;;;5037446;28;20404;-74
2021/05/26 13:50:17;;;;;;;3.97;1.03;;;;;;;;;;5021561;28;20414;-73
2021/05/26 13:52:47;;;;;;;0.80;0.63;;;;;;;;;;5038525;28;20394;-75
2021/05/26 13:55:13;;;;;;;1.37;1.17;;;;;;;;;;5038991;28;20422;-77
2021/05/26 13:57:39;;;;;;;2.50;0.70;;;;;;;;;;5021106;28;21078;-76
2021/05/26 14:00:07;;;;;;;1.97;1.03;;;;;;;;;;5038477;28;20433;-74
2021/05/26 14:02:33;;;;;;;4.80;1.00;;;;;;;;;;5021182;28;20940;-74
2021/05/26 14:05:02;;;;;;;0.80;0.70;;;;;;;;;;5022094;28;20455;-76
2021/05/26 14:07:28;;;;;;;1.00;0.77;;;;;;;;;;5040586;28;20481;-74
2021/05/26 14:09:54;;;;;;;1.63;0.60;;;;;;;;;;5039017;28;20398;-75
2021/05/26 14:12:23;;;;;;;1.20;0.70;;;;;;;;;;5038789;28;20399;-76
2021/05/26 14:14:51;;;;;;;2.40;1.43;;;;;;;;;;5036007;28;20411;-75
2021/05/26 14:17:17;;;;;;;14.13;1.10;;;;;;;;;;5037662;28;20410;-75
2021/05/26 14:19:43;;;;;;;0.90;0.60;;;;;;;;;;5034681;28;20413;-76
2021/05/26 14:22:10;;;;;;;5.63;2.53;;;;;;;;;;5035166;28;20378;-73
2021/05/26 14:24:37;;;;;;;0.70;0.50;;;;;;;;;;5019787;28;20462;-76
2021/05/26 14:27:03;;;;;;;1.13;1.00;;;;;;;;;;5038682;28;20412;-75
2021/05/26 14:29:29;;;;;;;0.70;0.50;;;;;;;;;;5019140;28;20507;-76
2021/05/26 14:31:55;;;;;;;1.20;0.70;;;;;;;;;;5035899;28;20463;-75
2021/05/26 14:34:23;;;;;;;0.93;0.60;;;;;;;;;;5024015;28;20496;-76
2021/05/26 14:36:49;;;;;;;0.80;0.70;;;;;;;;;;5036894;28;20428;-74
2021/05/26 14:39:16;;;;;;;0.80;0.50;;;;;;;;;;5039103;28;20416;-75
2021/05/26 14:41:45;;;;;;;0.80;0.50;;;;;;;;;;5020266;28;20391;-74
2021/05/26 14:44:12;;;;;;;1.10;0.90;;;;;;;;;;5039192;28;20383;-75
2021/05/26 14:46:40;;;;;;;0.90;0.60;;;;;;;;;;5038792;28;20487;-75